sensor_id;sensor_type;location;lat;lon;timestamp;P1;durP1;ratioP1;P2;durP2;ratioP2
17369;SDS011;8802;52.402;4.920;2022-12-18T00:02:12;32.33;;;20.00;;
17369;SDS011;8802;52.402;4.920;2022-12-18T00:04:39;31.85;;;20.27;;
17369;SDS011;8802;52.402;4.920;2022-12-18T00:07:07;33.67;;;20.90;;
17369;SDS011;8802;52.402;4.920;2022-12-18T00:09:34;35.60;;;22.40;;
17369;SDS011;8802;52.402;4.920;2022-12-18T00:12:01;29.23;;;18.73;;
17369;SDS011;8802;52.402;4.920;2022-12-18T00:14:28;37.72;;;23.55;;
17369;SDS011;8802;52.402;4.920;2022-12-18T00:16:55;29.23;;;18.30;;
17369;SDS011;8802;52.402;4.920;2022-12-18T00:19:23;29.25;;;19.15;;
17369;SDS011;8802;52.402;4.920;2022-12-18T00:21:50;41.72;;;25.02;;
17369;SDS011;8802;52.402;4.920;2022-12-18T00:24:18;32.22;;;19.75;;
17369;SDS011;8802;52.402;4.920;2022-12-18T00:26:45;27.98;;;19.05;;
17369;SDS011;8802;52.402;4.920;2022-12-18T00:29:12;37.97;;;22.20;;
17369;SDS011;8802;52.402;4.920;2022-12-18T00:31:39;33.92;;;19.85;;
17369;SDS011;8802;52.402;4.920;2022-12-18T00:34:08;31.25;;;20.17;;
17369;SDS011;8802;52.402;4.920;2022-12-18T00:36:36;40.42;;;22.75;;
17369;SDS011;8802;52.402;4.920;2022-12-18T00:39:04;38.17;;;23.30;;
17369;SDS011;8802;52.402;4.920;2022-12-18T00:41:32;33.88;;;20.38;;
17369;SDS011;8802;52.402;4.920;2022-12-18T00:44:17;29.63;;;18.80;;
17369;SDS011;8802;52.402;4.920;2022-12-18T00:46:44;37.63;;;23.80;;
17369;SDS011;8802;52.402;4.920;2022-12-18T00:49:12;34.97;;;21.75;;
17369;SDS011;8802;52.402;4.920;2022-12-18T00:51:40;41.95;;;25.08;;
17369;SDS011;8802;52.402;4.920;2022-12-18T00:54:07;29.60;;;19.67;;
17369;SDS011;8802;52.402;4.920;2022-12-18T00:56:36;33.42;;;20.35;;
17369;SDS011;8802;52.402;4.920;2022-12-18T00:59:03;35.72;;;20.35;;
17369;SDS011;8802;52.402;4.920;2022-12-18T01:01:30;40.50;;;24.05;;
17369;SDS011;8802;52.402;4.920;2022-12-18T01:03:59;37.45;;;24.42;;
17369;SDS011;8802;52.402;4.920;2022-12-18T01:06:26;40.97;;;24.63;;
17369;SDS011;8802;52.402;4.920;2022-12-18T01:08:53;36.80;;;23.20;;
17369;SDS011;8802;52.402;4.920;2022-12-18T01:11:19;36.13;;;21.90;;
17369;SDS011;8802;52.402;4.920;2022-12-18T01:13:48;34.13;;;20.42;;
17369;SDS011;8802;52.402;4.920;2022-12-18T01:16:16;32.00;;;20.42;;
17369;SDS011;8802;52.402;4.920;2022-12-18T01:18:43;36.33;;;19.27;;
17369;SDS011;8802;52.402;4.920;2022-12-18T01:21:11;37.92;;;23.27;;
17369;SDS011;8802;52.402;4.920;2022-12-18T01:23:39;32.42;;;19.60;;
17369;SDS011;8802;52.402;4.920;2022-12-18T01:26:07;31.33;;;20.10;;
17369;SDS011;8802;52.402;4.920;2022-12-18T01:28:34;27.73;;;17.00;;
17369;SDS011;8802;52.402;4.920;2022-12-18T01:31:16;36.25;;;22.92;;
17369;SDS011;8802;52.402;4.920;2022-12-18T01:33:44;30.05;;;18.75;;
17369;SDS011;8802;52.402;4.920;2022-12-18T01:36:14;30.45;;;19.27;;
17369;SDS011;8802;52.402;4.920;2022-12-18T01:38:43;30.40;;;19.58;;
17369;SDS011;8802;52.402;4.920;2022-12-18T01:41:10;34.63;;;21.58;;
17369;SDS011;8802;52.402;4.920;2022-12-18T01:43:45;25.30;;;18.00;;
17369;SDS011;8802;52.402;4.920;2022-12-18T01:46:16;29.85;;;19.60;;
17369;SDS011;8802;52.402;4.920;2022-12-18T01:48:43;27.02;;;17.75;;
17369;SDS011;8802;52.402;4.920;2022-12-18T01:51:13;35.15;;;20.60;;
17369;SDS011;8802;52.402;4.920;2022-12-18T01:53:40;27.30;;;17.88;;
17369;SDS011;8802;52.402;4.920;2022-12-18T01:56:11;28.33;;;19.00;;
17369;SDS011;8802;52.402;4.920;2022-12-18T01:58:41;31.40;;;21.50;;
17369;SDS011;8802;52.402;4.920;2022-12-18T02:01:17;30.58;;;19.25;;
17369;SDS011;8802;52.402;4.920;2022-12-18T02:03:44;31.23;;;20.45;;
17369;SDS011;8802;52.402;4.920;2022-12-18T02:06:13;34.85;;;22.83;;
17369;SDS011;8802;52.402;4.920;2022-12-18T02:08:57;31.20;;;20.48;;
17369;SDS011;8802;52.402;4.920;2022-12-18T02:11:32;34.55;;;21.27;;
17369;SDS011;8802;52.402;4.920;2022-12-18T02:14:10;32.70;;;20.85;;
17369;SDS011;8802;52.402;4.920;2022-12-18T02:16:45;33.47;;;21.23;;
17369;SDS011;8802;52.402;4.920;2022-12-18T02:19:22;37.25;;;21.30;;
17369;SDS011;8802;52.402;4.920;2022-12-18T02:22:07;31.20;;;20.00;;
17369;SDS011;8802;52.402;4.920;2022-12-18T02:24:48;24.90;;;17.73;;
17369;SDS011;8802;52.402;4.920;2022-12-18T02:27:27;26.05;;;16.88;;
17369;SDS011;8802;52.402;4.920;2022-12-18T02:29:57;33.90;;;20.95;;
17369;SDS011;8802;52.402;4.920;2022-12-18T02:32:27;31.98;;;20.38;;
17369;SDS011;8802;52.402;4.920;2022-12-18T02:34:57;32.05;;;20.25;;
17369;SDS011;8802;52.402;4.920;2022-12-18T02:37:25;31.60;;;21.10;;
17369;SDS011;8802;52.402;4.920;2022-12-18T02:39:54;26.23;;;18.83;;
17369;SDS011;8802;52.402;4.920;2022-12-18T02:42:24;25.88;;;16.65;;
17369;SDS011;8802;52.402;4.920;2022-12-18T02:44:53;29.83;;;19.00;;
17369;SDS011;8802;52.402;4.920;2022-12-18T02:47:20;30.52;;;19.05;;
17369;SDS011;8802;52.402;4.920;2022-12-18T02:49:52;27.98;;;18.70;;
17369;SDS011;8802;52.402;4.920;2022-12-18T02:52:25;30.35;;;18.25;;
17369;SDS011;8802;52.402;4.920;2022-12-18T02:54:59;30.48;;;19.17;;
17369;SDS011;8802;52.402;4.920;2022-12-18T02:57:40;26.45;;;17.65;;
17369;SDS011;8802;52.402;4.920;2022-12-18T03:00:14;23.23;;;16.00;;
17369;SDS011;8802;52.402;4.920;2022-12-18T03:02:45;26.55;;;18.40;;
17369;SDS011;8802;52.402;4.920;2022-12-18T03:05:18;31.23;;;19.70;;
17369;SDS011;8802;52.402;4.920;2022-12-18T03:07:49;31.48;;;19.95;;
17369;SDS011;8802;52.402;4.920;2022-12-18T03:10:23;31.27;;;19.85;;
17369;SDS011;8802;52.402;4.920;2022-12-18T03:12:54;28.42;;;19.60;;
17369;SDS011;8802;52.402;4.920;2022-12-18T03:15:28;30.20;;;19.15;;
17369;SDS011;8802;52.402;4.920;2022-12-18T03:17:59;32.22;;;20.42;;
17369;SDS011;8802;52.402;4.920;2022-12-18T03:20:31;25.75;;;16.52;;
17369;SDS011;8802;52.402;4.920;2022-12-18T03:23:02;25.05;;;17.70;;
17369;SDS011;8802;52.402;4.920;2022-12-18T03:25:34;29.95;;;19.00;;
17369;SDS011;8802;52.402;4.920;2022-12-18T03:28:04;24.85;;;15.55;;
17369;SDS011;8802;52.402;4.920;2022-12-18T03:30:35;21.63;;;14.77;;
17369;SDS011;8802;52.402;4.920;2022-12-18T03:33:07;21.23;;;15.93;;
17369;SDS011;8802;52.402;4.920;2022-12-18T03:35:37;24.08;;;15.98;;
17369;SDS011;8802;52.402;4.920;2022-12-18T03:38:07;23.08;;;15.02;;
17369;SDS011;8802;52.402;4.920;2022-12-18T03:40:38;26.08;;;17.40;;
17369;SDS011;8802;52.402;4.920;2022-12-18T03:43:11;24.17;;;16.73;;
17369;SDS011;8802;52.402;4.920;2022-12-18T03:45:48;23.23;;;16.13;;
17369;SDS011;8802;52.402;4.920;2022-12-18T03:48:19;23.42;;;17.02;;
17369;SDS011;8802;52.402;4.920;2022-12-18T03:50:54;25.17;;;18.45;;
17369;SDS011;8802;52.402;4.920;2022-12-18T03:53:25;20.77;;;15.00;;
17369;SDS011;8802;52.402;4.920;2022-12-18T03:55:59;21.70;;;15.50;;
17369;SDS011;8802;52.402;4.920;2022-12-18T03:58:28;22.50;;;16.23;;
17369;SDS011;8802;52.402;4.920;2022-12-18T04:00:59;22.50;;;15.38;;
17369;SDS011;8802;52.402;4.920;2022-12-18T04:03:28;24.35;;;17.67;;
17369;SDS011;8802;52.402;4.920;2022-12-18T04:05:57;25.05;;;17.17;;
17369;SDS011;8802;52.402;4.920;2022-12-18T04:08:26;22.77;;;15.82;;
17369;SDS011;8802;52.402;4.920;2022-12-18T04:10:53;30.30;;;21.33;;
17369;SDS011;8802;52.402;4.920;2022-12-18T04:13:23;26.33;;;17.25;;
17369;SDS011;8802;52.402;4.920;2022-12-18T04:15:53;24.88;;;17.20;;
17369;SDS011;8802;52.402;4.920;2022-12-18T04:18:21;30.17;;;21.00;;
17369;SDS011;8802;52.402;4.920;2022-12-18T04:20:48;25.48;;;18.58;;
17369;SDS011;8802;52.402;4.920;2022-12-18T04:23:15;32.20;;;21.52;;
17369;SDS011;8802;52.402;4.920;2022-12-18T04:25:42;24.60;;;17.67;;
17369;SDS011;8802;52.402;4.920;2022-12-18T04:28:08;25.10;;;17.35;;
17369;SDS011;8802;52.402;4.920;2022-12-18T04:30:35;24.98;;;17.23;;
17369;SDS011;8802;52.402;4.920;2022-12-18T04:33:02;26.05;;;17.45;;
17369;SDS011;8802;52.402;4.920;2022-12-18T04:35:30;25.00;;;17.08;;
17369;SDS011;8802;52.402;4.920;2022-12-18T04:37:57;27.83;;;18.75;;
17369;SDS011;8802;52.402;4.920;2022-12-18T04:40:24;23.80;;;17.30;;
17369;SDS011;8802;52.402;4.920;2022-12-18T04:42:50;23.77;;;16.92;;
17369;SDS011;8802;52.402;4.920;2022-12-18T04:45:17;24.70;;;16.10;;
17369;SDS011;8802;52.402;4.920;2022-12-18T04:47:44;24.15;;;17.30;;
17369;SDS011;8802;52.402;4.920;2022-12-18T04:50:11;29.67;;;20.30;;
17369;SDS011;8802;52.402;4.920;2022-12-18T04:52:39;29.00;;;20.40;;
17369;SDS011;8802;52.402;4.920;2022-12-18T04:55:06;26.27;;;18.55;;
17369;SDS011;8802;52.402;4.920;2022-12-18T04:57:33;30.02;;;20.98;;
17369;SDS011;8802;52.402;4.920;2022-12-18T05:00:00;29.80;;;20.25;;
17369;SDS011;8802;52.402;4.920;2022-12-18T05:02:27;26.50;;;17.55;;
17369;SDS011;8802;52.402;4.920;2022-12-18T05:04:54;24.58;;;17.40;;
17369;SDS011;8802;52.402;4.920;2022-12-18T05:07:20;25.23;;;17.67;;
17369;SDS011;8802;52.402;4.920;2022-12-18T05:09:48;26.02;;;16.98;;
17369;SDS011;8802;52.402;4.920;2022-12-18T05:12:15;23.58;;;16.63;;
17369;SDS011;8802;52.402;4.920;2022-12-18T05:14:42;24.23;;;17.30;;
17369;SDS011;8802;52.402;4.920;2022-12-18T05:17:09;26.65;;;18.25;;
17369;SDS011;8802;52.402;4.920;2022-12-18T05:19:36;32.65;;;21.75;;
17369;SDS011;8802;52.402;4.920;2022-12-18T05:22:02;26.35;;;17.73;;
17369;SDS011;8802;52.402;4.920;2022-12-18T05:24:29;31.75;;;22.33;;
17369;SDS011;8802;52.402;4.920;2022-12-18T05:26:57;26.35;;;18.92;;
17369;SDS011;8802;52.402;4.920;2022-12-18T05:29:24;25.65;;;18.95;;
17369;SDS011;8802;52.402;4.920;2022-12-18T05:31:51;27.35;;;18.92;;
17369;SDS011;8802;52.402;4.920;2022-12-18T05:34:18;30.00;;;21.23;;
17369;SDS011;8802;52.402;4.920;2022-12-18T05:36:45;26.88;;;18.35;;
17369;SDS011;8802;52.402;4.920;2022-12-18T05:39:11;27.35;;;18.75;;
17369;SDS011;8802;52.402;4.920;2022-12-18T05:41:38;24.83;;;17.40;;
17369;SDS011;8802;52.402;4.920;2022-12-18T05:44:06;31.95;;;21.20;;
17369;SDS011;8802;52.402;4.920;2022-12-18T05:46:33;29.02;;;20.13;;
17369;SDS011;8802;52.402;4.920;2022-12-18T05:49:01;26.75;;;17.90;;
17369;SDS011;8802;52.402;4.920;2022-12-18T05:51:28;26.58;;;18.13;;
17369;SDS011;8802;52.402;4.920;2022-12-18T05:53:55;23.23;;;17.02;;
17369;SDS011;8802;52.402;4.920;2022-12-18T05:56:22;25.23;;;17.45;;
17369;SDS011;8802;52.402;4.920;2022-12-18T05:58:51;25.58;;;17.70;;
17369;SDS011;8802;52.402;4.920;2022-12-18T06:01:21;21.45;;;16.85;;
17369;SDS011;8802;52.402;4.920;2022-12-18T06:03:48;28.58;;;20.17;;
17369;SDS011;8802;52.402;4.920;2022-12-18T06:06:16;21.15;;;16.08;;
17369;SDS011;8802;52.402;4.920;2022-12-18T06:08:44;24.27;;;18.17;;
17369;SDS011;8802;52.402;4.920;2022-12-18T06:11:11;25.95;;;18.38;;
17369;SDS011;8802;52.402;4.920;2022-12-18T06:13:38;23.42;;;18.30;;
17369;SDS011;8802;52.402;4.920;2022-12-18T06:16:06;21.75;;;16.52;;
17369;SDS011;8802;52.402;4.920;2022-12-18T06:18:34;22.55;;;17.38;;
17369;SDS011;8802;52.402;4.920;2022-12-18T06:21:01;21.67;;;15.80;;
17369;SDS011;8802;52.402;4.920;2022-12-18T06:23:27;26.80;;;20.02;;
17369;SDS011;8802;52.402;4.920;2022-12-18T06:25:54;22.60;;;16.63;;
17369;SDS011;8802;52.402;4.920;2022-12-18T06:28:21;18.85;;;15.00;;
17369;SDS011;8802;52.402;4.920;2022-12-18T06:30:48;21.88;;;16.10;;
17369;SDS011;8802;52.402;4.920;2022-12-18T06:33:15;21.70;;;16.65;;
17369;SDS011;8802;52.402;4.920;2022-12-18T06:35:44;21.27;;;16.48;;
17369;SDS011;8802;52.402;4.920;2022-12-18T06:38:10;19.38;;;15.65;;
17369;SDS011;8802;52.402;4.920;2022-12-18T06:40:37;21.05;;;16.17;;
17369;SDS011;8802;52.402;4.920;2022-12-18T06:43:05;20.80;;;14.55;;
17369;SDS011;8802;52.402;4.920;2022-12-18T06:45:32;18.92;;;14.25;;
17369;SDS011;8802;52.402;4.920;2022-12-18T06:47:58;17.48;;;14.07;;
17369;SDS011;8802;52.402;4.920;2022-12-18T06:50:25;18.10;;;14.05;;
17369;SDS011;8802;52.402;4.920;2022-12-18T06:52:53;17.92;;;13.80;;
17369;SDS011;8802;52.402;4.920;2022-12-18T06:55:20;17.50;;;13.32;;
17369;SDS011;8802;52.402;4.920;2022-12-18T06:57:47;16.83;;;13.30;;
17369;SDS011;8802;52.402;4.920;2022-12-18T07:00:14;15.18;;;12.93;;
17369;SDS011;8802;52.402;4.920;2022-12-18T07:02:41;17.15;;;13.77;;
17369;SDS011;8802;52.402;4.920;2022-12-18T07:05:08;15.68;;;12.82;;
17369;SDS011;8802;52.402;4.920;2022-12-18T07:07:35;16.10;;;11.63;;
17369;SDS011;8802;52.402;4.920;2022-12-18T07:10:03;13.32;;;11.18;;
17369;SDS011;8802;52.402;4.920;2022-12-18T07:12:31;14.32;;;11.25;;
17369;SDS011;8802;52.402;4.920;2022-12-18T07:14:57;16.40;;;10.75;;
17369;SDS011;8802;52.402;4.920;2022-12-18T07:17:24;15.77;;;12.48;;
17369;SDS011;8802;52.402;4.920;2022-12-18T07:19:51;16.95;;;13.05;;
17369;SDS011;8802;52.402;4.920;2022-12-18T07:22:18;15.30;;;11.88;;
17369;SDS011;8802;52.402;4.920;2022-12-18T07:24:44;14.30;;;11.07;;
17369;SDS011;8802;52.402;4.920;2022-12-18T07:27:15;15.30;;;11.50;;
17369;SDS011;8802;52.402;4.920;2022-12-18T07:29:42;13.95;;;11.43;;
17369;SDS011;8802;52.402;4.920;2022-12-18T07:32:09;13.00;;;10.48;;
17369;SDS011;8802;52.402;4.920;2022-12-18T07:34:36;13.93;;;10.68;;
17369;SDS011;8802;52.402;4.920;2022-12-18T07:37:03;13.02;;;10.50;;
17369;SDS011;8802;52.402;4.920;2022-12-18T07:39:29;14.05;;;10.48;;
17369;SDS011;8802;52.402;4.920;2022-12-18T07:41:56;13.48;;;10.65;;
17369;SDS011;8802;52.402;4.920;2022-12-18T07:44:42;14.13;;;11.57;;
17369;SDS011;8802;52.402;4.920;2022-12-18T07:47:08;14.57;;;11.02;;
17369;SDS011;8802;52.402;4.920;2022-12-18T07:49:35;14.75;;;11.23;;
17369;SDS011;8802;52.402;4.920;2022-12-18T07:52:02;14.05;;;10.45;;
17369;SDS011;8802;52.402;4.920;2022-12-18T07:54:29;14.25;;;10.52;;
17369;SDS011;8802;52.402;4.920;2022-12-18T07:56:56;13.38;;;11.20;;
17369;SDS011;8802;52.402;4.920;2022-12-18T07:59:23;13.35;;;10.65;;
17369;SDS011;8802;52.402;4.920;2022-12-18T08:01:51;14.32;;;11.88;;
17369;SDS011;8802;52.402;4.920;2022-12-18T08:04:18;11.48;;;9.55;;
17369;SDS011;8802;52.402;4.920;2022-12-18T08:06:45;11.93;;;10.07;;
17369;SDS011;8802;52.402;4.920;2022-12-18T08:09:12;12.88;;;11.10;;
17369;SDS011;8802;52.402;4.920;2022-12-18T08:11:39;12.13;;;9.52;;
17369;SDS011;8802;52.402;4.920;2022-12-18T08:14:06;11.73;;;9.38;;
17369;SDS011;8802;52.402;4.920;2022-12-18T08:16:32;12.40;;;9.50;;
17369;SDS011;8802;52.402;4.920;2022-12-18T08:19:01;11.85;;;9.57;;
17369;SDS011;8802;52.402;4.920;2022-12-18T08:21:29;9.65;;;8.15;;
17369;SDS011;8802;52.402;4.920;2022-12-18T08:23:57;10.52;;;8.88;;
17369;SDS011;8802;52.402;4.920;2022-12-18T08:26:26;11.90;;;9.48;;
17369;SDS011;8802;52.402;4.920;2022-12-18T08:28:55;10.85;;;9.43;;
17369;SDS011;8802;52.402;4.920;2022-12-18T08:31:22;11.30;;;9.88;;
17369;SDS011;8802;52.402;4.920;2022-12-18T08:33:50;11.52;;;9.20;;
17369;SDS011;8802;52.402;4.920;2022-12-18T08:36:19;10.77;;;9.50;;
17369;SDS011;8802;52.402;4.920;2022-12-18T08:38:46;11.98;;;9.55;;
17369;SDS011;8802;52.402;4.920;2022-12-18T08:41:14;10.85;;;8.75;;
17369;SDS011;8802;52.402;4.920;2022-12-18T08:43:42;12.23;;;10.07;;
17369;SDS011;8802;52.402;4.920;2022-12-18T08:46:31;10.57;;;8.95;;
17369;SDS011;8802;52.402;4.920;2022-12-18T08:49:00;13.95;;;9.77;;
17369;SDS011;8802;52.402;4.920;2022-12-18T08:51:29;11.38;;;9.80;;
17369;SDS011;8802;52.402;4.920;2022-12-18T08:53:55;11.40;;;9.70;;
17369;SDS011;8802;52.402;4.920;2022-12-18T08:56:22;12.00;;;9.38;;
17369;SDS011;8802;52.402;4.920;2022-12-18T08:58:50;16.40;;;10.50;;
17369;SDS011;8802;52.402;4.920;2022-12-18T09:01:18;12.50;;;10.25;;
17369;SDS011;8802;52.402;4.920;2022-12-18T09:03:45;11.45;;;9.40;;
17369;SDS011;8802;52.402;4.920;2022-12-18T09:06:13;11.52;;;9.40;;
17369;SDS011;8802;52.402;4.920;2022-12-18T09:08:42;11.80;;;9.38;;
17369;SDS011;8802;52.402;4.920;2022-12-18T09:11:11;10.50;;;9.40;;
17369;SDS011;8802;52.402;4.920;2022-12-18T09:13:40;11.43;;;9.10;;
17369;SDS011;8802;52.402;4.920;2022-12-18T09:16:07;11.77;;;9.52;;
17369;SDS011;8802;52.402;4.920;2022-12-18T09:18:34;12.15;;;10.13;;
17369;SDS011;8802;52.402;4.920;2022-12-18T09:21:07;11.38;;;9.15;;
17369;SDS011;8802;52.402;4.920;2022-12-18T09:23:35;11.25;;;8.13;;
17369;SDS011;8802;52.402;4.920;2022-12-18T09:26:03;11.63;;;9.15;;
17369;SDS011;8802;52.402;4.920;2022-12-18T09:28:30;13.10;;;9.50;;
17369;SDS011;8802;52.402;4.920;2022-12-18T09:30:57;10.88;;;8.73;;
17369;SDS011;8802;52.402;4.920;2022-12-18T09:33:24;9.57;;;8.60;;
17369;SDS011;8802;52.402;4.920;2022-12-18T09:35:51;10.98;;;9.52;;
17369;SDS011;8802;52.402;4.920;2022-12-18T09:38:18;11.93;;;9.27;;
17369;SDS011;8802;52.402;4.920;2022-12-18T09:40:46;9.73;;;8.52;;
17369;SDS011;8802;52.402;4.920;2022-12-18T09:43:18;10.68;;;8.65;;
17369;SDS011;8802;52.402;4.920;2022-12-18T09:45:47;10.07;;;8.98;;
17369;SDS011;8802;52.402;4.920;2022-12-18T09:48:19;12.73;;;10.13;;
17369;SDS011;8802;52.402;4.920;2022-12-18T09:50:49;11.75;;;9.77;;
17369;SDS011;8802;52.402;4.920;2022-12-18T09:53:19;11.75;;;10.43;;
17369;SDS011;8802;52.402;4.920;2022-12-18T09:55:51;10.13;;;9.05;;
17369;SDS011;8802;52.402;4.920;2022-12-18T09:58:22;10.15;;;8.95;;
17369;SDS011;8802;52.402;4.920;2022-12-18T10:00:54;12.02;;;9.80;;
17369;SDS011;8802;52.402;4.920;2022-12-18T10:03:21;11.52;;;9.57;;
17369;SDS011;8802;52.402;4.920;2022-12-18T10:05:51;10.57;;;9.10;;
17369;SDS011;8802;52.402;4.920;2022-12-18T10:08:28;12.27;;;9.50;;
17369;SDS011;8802;52.402;4.920;2022-12-18T10:11:03;11.70;;;8.95;;
17369;SDS011;8802;52.402;4.920;2022-12-18T10:13:51;12.07;;;9.63;;
17369;SDS011;8802;52.402;4.920;2022-12-18T10:16:25;10.48;;;9.10;;
17369;SDS011;8802;52.402;4.920;2022-12-18T10:19:03;10.57;;;8.10;;
17369;SDS011;8802;52.402;4.920;2022-12-18T10:21:44;10.32;;;9.15;;
17369;SDS011;8802;52.402;4.920;2022-12-18T10:24:18;10.85;;;9.45;;
17369;SDS011;8802;52.402;4.920;2022-12-18T10:26:52;12.25;;;9.88;;
17369;SDS011;8802;52.402;4.920;2022-12-18T10:29:28;11.63;;;9.57;;
17369;SDS011;8802;52.402;4.920;2022-12-18T10:31:55;11.20;;;9.55;;
17369;SDS011;8802;52.402;4.920;2022-12-18T10:34:21;11.60;;;10.30;;
17369;SDS011;8802;52.402;4.920;2022-12-18T10:36:49;12.18;;;10.13;;
17369;SDS011;8802;52.402;4.920;2022-12-18T10:39:17;10.68;;;9.23;;
17369;SDS011;8802;52.402;4.920;2022-12-18T10:41:47;12.25;;;10.13;;
17369;SDS011;8802;52.402;4.920;2022-12-18T10:44:18;12.00;;;9.93;;
17369;SDS011;8802;52.402;4.920;2022-12-18T10:46:47;13.90;;;10.82;;
17369;SDS011;8802;52.402;4.920;2022-12-18T10:49:19;12.18;;;10.40;;
17369;SDS011;8802;52.402;4.920;2022-12-18T10:51:49;12.80;;;10.55;;
17369;SDS011;8802;52.402;4.920;2022-12-18T10:54:17;13.38;;;11.45;;
17369;SDS011;8802;52.402;4.920;2022-12-18T10:56:47;14.02;;;10.68;;
17369;SDS011;8802;52.402;4.920;2022-12-18T10:59:15;10.15;;;9.10;;
17369;SDS011;8802;52.402;4.920;2022-12-18T11:01:48;14.80;;;12.60;;
17369;SDS011;8802;52.402;4.920;2022-12-18T11:04:18;11.38;;;10.07;;
17369;SDS011;8802;52.402;4.920;2022-12-18T11:06:54;12.48;;;10.27;;
17369;SDS011;8802;52.402;4.920;2022-12-18T11:09:23;11.07;;;9.10;;
17369;SDS011;8802;52.402;4.920;2022-12-18T11:11:52;11.48;;;10.07;;
17369;SDS011;8802;52.402;4.920;2022-12-18T11:14:21;12.90;;;10.82;;
17369;SDS011;8802;52.402;4.920;2022-12-18T11:16:52;10.20;;;8.88;;
17369;SDS011;8802;52.402;4.920;2022-12-18T11:19:21;13.15;;;10.82;;
17369;SDS011;8802;52.402;4.920;2022-12-18T11:21:59;11.02;;;9.63;;
17369;SDS011;8802;52.402;4.920;2022-12-18T11:24:29;13.00;;;9.75;;
17369;SDS011;8802;52.402;4.920;2022-12-18T11:26:58;10.63;;;9.20;;
17369;SDS011;8802;52.402;4.920;2022-12-18T11:29:28;10.05;;;8.98;;
17369;SDS011;8802;52.402;4.920;2022-12-18T11:34:52;11.27;;;8.95;;
17369;SDS011;8802;52.402;4.920;2022-12-18T11:37:24;10.07;;;8.70;;
17369;SDS011;8802;52.402;4.920;2022-12-18T11:39:52;10.68;;;9.32;;
17369;SDS011;8802;52.402;4.920;2022-12-18T11:42:23;11.07;;;9.57;;
17369;SDS011;8802;52.402;4.920;2022-12-18T11:44:54;10.35;;;9.25;;
17369;SDS011;8802;52.402;4.920;2022-12-18T11:47:28;11.98;;;10.20;;
17369;SDS011;8802;52.402;4.920;2022-12-18T11:50:08;13.32;;;10.30;;
17369;SDS011;8802;52.402;4.920;2022-12-18T11:52:40;12.18;;;10.23;;
17369;SDS011;8802;52.402;4.920;2022-12-18T11:55:10;12.02;;;10.00;;
17369;SDS011;8802;52.402;4.920;2022-12-18T11:57:40;10.75;;;9.18;;
17369;SDS011;8802;52.402;4.920;2022-12-18T12:00:15;10.68;;;9.52;;
17369;SDS011;8802;52.402;4.920;2022-12-18T12:05:46;9.80;;;8.52;;
17369;SDS011;8802;52.402;4.920;2022-12-18T12:08:27;13.18;;;10.90;;
17369;SDS011;8802;52.402;4.920;2022-12-18T12:11:04;10.63;;;9.43;;
17369;SDS011;8802;52.402;4.920;2022-12-18T12:13:40;13.50;;;10.90;;
17369;SDS011;8802;52.402;4.920;2022-12-18T12:16:17;12.70;;;10.30;;
17369;SDS011;8802;52.402;4.920;2022-12-18T12:18:56;13.05;;;10.23;;
17369;SDS011;8802;52.402;4.920;2022-12-18T12:21:33;10.93;;;9.10;;
17369;SDS011;8802;52.402;4.920;2022-12-18T12:24:09;11.02;;;9.85;;
17369;SDS011;8802;52.402;4.920;2022-12-18T12:26:49;10.45;;;8.95;;
17369;SDS011;8802;52.402;4.920;2022-12-18T12:29:28;9.27;;;8.30;;
17369;SDS011;8802;52.402;4.920;2022-12-18T12:32:10;13.70;;;10.75;;
17369;SDS011;8802;52.402;4.920;2022-12-18T12:34:50;10.85;;;9.18;;
17369;SDS011;8802;52.402;4.920;2022-12-18T12:37:29;12.98;;;9.60;;
17369;SDS011;8802;52.402;4.920;2022-12-18T12:40:06;10.57;;;9.23;;
17369;SDS011;8802;52.402;4.920;2022-12-18T12:42:34;12.27;;;10.68;;
17369;SDS011;8802;52.402;4.920;2022-12-18T12:45:23;11.45;;;10.25;;
17369;SDS011;8802;52.402;4.920;2022-12-18T12:47:56;10.75;;;9.13;;
17369;SDS011;8802;52.402;4.920;2022-12-18T12:50:26;11.52;;;9.77;;
17369;SDS011;8802;52.402;4.920;2022-12-18T12:52:54;13.73;;;12.20;;
17369;SDS011;8802;52.402;4.920;2022-12-18T12:55:24;12.05;;;9.60;;
17369;SDS011;8802;52.402;4.920;2022-12-18T12:57:55;11.25;;;10.05;;
17369;SDS011;8802;52.402;4.920;2022-12-18T13:00:29;10.43;;;9.20;;
17369;SDS011;8802;52.402;4.920;2022-12-18T13:03:03;12.88;;;11.10;;
17369;SDS011;8802;52.402;4.920;2022-12-18T13:05:38;10.60;;;9.50;;
17369;SDS011;8802;52.402;4.920;2022-12-18T13:08:11;12.85;;;11.10;;
17369;SDS011;8802;52.402;4.920;2022-12-18T13:10:47;11.05;;;9.50;;
17369;SDS011;8802;52.402;4.920;2022-12-18T13:13:15;13.27;;;10.65;;
17369;SDS011;8802;52.402;4.920;2022-12-18T13:15:42;10.23;;;8.57;;
17369;SDS011;8802;52.402;4.920;2022-12-18T13:18:11;10.95;;;9.60;;
17369;SDS011;8802;52.402;4.920;2022-12-18T13:20:44;12.75;;;9.68;;
17369;SDS011;8802;52.402;4.920;2022-12-18T13:23:26;12.25;;;10.60;;
17369;SDS011;8802;52.402;4.920;2022-12-18T13:29:00;11.82;;;9.50;;
17369;SDS011;8802;52.402;4.920;2022-12-18T13:34:34;12.23;;;10.02;;
17369;SDS011;8802;52.402;4.920;2022-12-18T13:43:15;9.70;;;8.70;;
17369;SDS011;8802;52.402;4.920;2022-12-18T13:45:58;9.43;;;8.45;;
17369;SDS011;8802;52.402;4.920;2022-12-18T13:48:28;13.43;;;11.05;;
17369;SDS011;8802;52.402;4.920;2022-12-18T13:50:59;12.00;;;9.73;;
17369;SDS011;8802;52.402;4.920;2022-12-18T13:53:31;13.75;;;11.40;;
17369;SDS011;8802;52.402;4.920;2022-12-18T13:56:02;13.00;;;10.35;;
17369;SDS011;8802;52.402;4.920;2022-12-18T13:58:29;10.00;;;8.60;;
17369;SDS011;8802;52.402;4.920;2022-12-18T14:00:56;12.27;;;10.27;;
17369;SDS011;8802;52.402;4.920;2022-12-18T14:03:25;10.70;;;8.88;;
17369;SDS011;8802;52.402;4.920;2022-12-18T14:05:53;12.32;;;10.93;;
17369;SDS011;8802;52.402;4.920;2022-12-18T14:08:22;10.25;;;8.63;;
17369;SDS011;8802;52.402;4.920;2022-12-18T14:10:52;10.38;;;8.18;;
17369;SDS011;8802;52.402;4.920;2022-12-18T14:13:21;12.52;;;10.30;;
17369;SDS011;8802;52.402;4.920;2022-12-18T14:15:50;10.23;;;9.13;;
17369;SDS011;8802;52.402;4.920;2022-12-18T14:18:21;11.90;;;10.52;;
17369;SDS011;8802;52.402;4.920;2022-12-18T14:20:50;11.95;;;10.20;;
17369;SDS011;8802;52.402;4.920;2022-12-18T14:23:29;12.07;;;9.75;;
17369;SDS011;8802;52.402;4.920;2022-12-18T14:25:59;11.50;;;9.85;;
17369;SDS011;8802;52.402;4.920;2022-12-18T14:28:27;10.52;;;8.75;;
17369;SDS011;8802;52.402;4.920;2022-12-18T14:30:54;11.93;;;10.73;;
17369;SDS011;8802;52.402;4.920;2022-12-18T14:33:22;12.65;;;10.07;;
17369;SDS011;8802;52.402;4.920;2022-12-18T14:35:53;13.63;;;11.20;;
17369;SDS011;8802;52.402;4.920;2022-12-18T14:38:25;12.20;;;10.90;;
17369;SDS011;8802;52.402;4.920;2022-12-18T14:40:57;12.00;;;10.55;;
17369;SDS011;8802;52.402;4.920;2022-12-18T14:43:27;10.55;;;9.13;;
17369;SDS011;8802;52.402;4.920;2022-12-18T14:45:55;12.88;;;11.35;;
17369;SDS011;8802;52.402;4.920;2022-12-18T14:48:30;11.98;;;10.43;;
17369;SDS011;8802;52.402;4.920;2022-12-18T14:51:02;12.10;;;9.90;;
17369;SDS011;8802;52.402;4.920;2022-12-18T14:53:35;14.45;;;12.65;;
17369;SDS011;8802;52.402;4.920;2022-12-18T14:56:12;11.98;;;10.52;;
17369;SDS011;8802;52.402;4.920;2022-12-18T14:58:44;11.00;;;9.77;;
17369;SDS011;8802;52.402;4.920;2022-12-18T15:01:22;11.52;;;10.15;;
17369;SDS011;8802;52.402;4.920;2022-12-18T15:03:51;11.18;;;9.18;;
17369;SDS011;8802;52.402;4.920;2022-12-18T15:06:24;13.77;;;10.73;;
17369;SDS011;8802;52.402;4.920;2022-12-18T15:08:56;15.02;;;13.40;;
17369;SDS011;8802;52.402;4.920;2022-12-18T15:14:23;12.32;;;11.05;;
17369;SDS011;8802;52.402;4.920;2022-12-18T15:16:57;15.88;;;12.10;;